sensor_id;sensor_type;location;lat;lon;timestamp;temperature;humidity
70368;DHT22;57789;53.868;10.728;2022-09-09T00:04:10;14.40;99.90
70368;DHT22;57789;53.868;10.728;2022-09-09T00:06:45;14.40;99.90
70368;DHT22;57789;53.868;10.728;2022-09-09T00:09:19;14.40;99.90
70368;DHT22;57789;53.868;10.728;2022-09-09T00:11:52;14.40;99.90
70368;DHT22;57789;53.868;10.728;2022-09-09T00:16:47;14.40;99.90
70368;DHT22;57789;53.868;10.728;2022-09-09T00:19:20;14.40;99.90
70368;DHT22;57789;53.868;10.728;2022-09-09T00:27:31;14.40;99.90
70368;DHT22;57789;53.868;10.728;2022-09-09T00:30:17;14.40;99.90
70368;DHT22;57789;53.868;10.728;2022-09-09T00:32:47;14.40;99.90
70368;DHT22;57789;53.868;10.728;2022-09-09T00:35:29;14.40;99.90
70368;DHT22;57789;53.868;10.728;2022-09-09T00:38:00;14.40;99.90
70368;DHT22;57789;53.868;10.728;2022-09-09T00:40:32;14.40;99.90
70368;DHT22;57789;53.868;10.728;2022-09-09T00:49:34;14.50;99.90
70368;DHT22;57789;53.868;10.728;2022-09-09T01:08:02;14.60;99.90
70368;DHT22;57789;53.868;10.728;2022-09-09T01:11:04;14.60;99.90
70368;DHT22;57789;53.868;10.728;2022-09-09T01:13:33;14.60;99.90
70368;DHT22;57789;53.868;10.728;2022-09-09T01:16:01;14.60;99.90
70368;DHT22;57789;53.868;10.728;2022-09-09T01:18:33;14.60;99.90
70368;DHT22;57789;53.868;10.728;2022-09-09T01:24:12;14.60;99.90
70368;DHT22;57789;53.868;10.728;2022-09-09T01:26:45;14.60;99.90
70368;DHT22;57789;53.868;10.728;2022-09-09T01:29:16;14.60;99.90
70368;DHT22;57789;53.868;10.728;2022-09-09T01:32:00;14.60;99.90
70368;DHT22;57789;53.868;10.728;2022-09-09T01:34:33;14.60;99.90
70368;DHT22;57789;53.868;10.728;2022-09-09T01:37:07;14.70;99.90
70368;DHT22;57789;53.868;10.728;2022-09-09T01:39:35;14.70;99.90
70368;DHT22;57789;53.868;10.728;2022-09-09T01:42:02;14.60;99.90
70368;DHT22;57789;53.868;10.728;2022-09-09T01:44:29;14.70;99.90
70368;DHT22;57789;53.868;10.728;2022-09-09T01:46:56;14.60;99.90
70368;DHT22;57789;53.868;10.728;2022-09-09T01:49:21;14.60;99.90
70368;DHT22;57789;53.868;10.728;2022-09-09T01:51:51;14.60;99.90
70368;DHT22;57789;53.868;10.728;2022-09-09T01:54:18;14.60;99.90
70368;DHT22;57789;53.868;10.728;2022-09-09T02:02:35;14.50;99.90
70368;DHT22;57789;53.868;10.728;2022-09-09T02:07:53;14.50;99.90
70368;DHT22;57789;53.868;10.728;2022-09-09T02:10:42;14.60;99.90
70368;DHT22;57789;53.868;10.728;2022-09-09T02:13:13;14.60;99.90
70368;DHT22;57789;53.868;10.728;2022-09-09T02:16:06;14.60;99.90
70368;DHT22;57789;53.868;10.728;2022-09-09T02:21:11;14.60;99.90
70368;DHT22;57789;53.868;10.728;2022-09-09T02:23:40;14.60;99.90
70368;DHT22;57789;53.868;10.728;2022-09-09T02:26:08;14.60;99.90
70368;DHT22;57789;53.868;10.728;2022-09-09T02:28:37;14.60;99.90
70368;DHT22;57789;53.868;10.728;2022-09-09T02:31:04;14.60;99.90
70368;DHT22;57789;53.868;10.728;2022-09-09T02:33:35;14.60;99.90
70368;DHT22;57789;53.868;10.728;2022-09-09T02:36:03;14.60;99.90
70368;DHT22;57789;53.868;10.728;2022-09-09T02:38:34;14.60;99.90
70368;DHT22;57789;53.868;10.728;2022-09-09T02:41:01;14.60;99.90
70368;DHT22;57789;53.868;10.728;2022-09-09T02:43:36;14.60;99.90
70368;DHT22;57789;53.868;10.728;2022-09-09T02:56:53;14.60;99.90
70368;DHT22;57789;53.868;10.728;2022-09-09T02:59:22;14.60;99.90
70368;DHT22;57789;53.868;10.728;2022-09-09T03:01:48;14.60;99.90
70368;DHT22;57789;53.868;10.728;2022-09-09T03:04:14;14.60;99.90
70368;DHT22;57789;53.868;10.728;2022-09-09T03:06:39;14.60;99.90
70368;DHT22;57789;53.868;10.728;2022-09-09T03:09:05;14.60;99.90
70368;DHT22;57789;53.868;10.728;2022-09-09T03:11:31;14.60;99.90
70368;DHT22;57789;53.868;10.728;2022-09-09T03:13:56;14.60;99.90
70368;DHT22;57789;53.868;10.728;2022-09-09T03:16:23;14.60;99.90
70368;DHT22;57789;53.868;10.728;2022-09-09T03:18:49;14.60;99.90
70368;DHT22;57789;53.868;10.728;2022-09-09T03:21:15;14.70;99.90
70368;DHT22;57789;53.868;10.728;2022-09-09T03:23:40;14.60;99.90
70368;DHT22;57789;53.868;10.728;2022-09-09T03:26:07;14.60;99.90
70368;DHT22;57789;53.868;10.728;2022-09-09T03:28:33;14.60;99.90
70368;DHT22;57789;53.868;10.728;2022-09-09T03:31:03;14.60;99.90
70368;DHT22;57789;53.868;10.728;2022-09-09T03:33:30;14.60;99.90
70368;DHT22;57789;53.868;10.728;2022-09-09T03:35:57;14.70;99.90
70368;DHT22;57789;53.868;10.728;2022-09-09T03:38:25;14.70;99.90
70368;DHT22;57789;53.868;10.728;2022-09-09T03:40:55;14.70;99.90
70368;DHT22;57789;53.868;10.728;2022-09-09T03:43:23;14.70;99.90
70368;DHT22;57789;53.868;10.728;2022-09-09T03:45:49;14.60;99.90
70368;DHT22;57789;53.868;10.728;2022-09-09T03:48:15;14.70;99.90
70368;DHT22;57789;53.868;10.728;2022-09-09T03:50:49;14.70;99.90
70368;DHT22;57789;53.868;10.728;2022-09-09T03:53:16;14.60;99.90
70368;DHT22;57789;53.868;10.728;2022-09-09T03:55:46;14.70;99.90
70368;DHT22;57789;53.868;10.728;2022-09-09T03:58:13;14.60;99.90
70368;DHT22;57789;53.868;10.728;2022-09-09T04:00:39;14.60;99.90
70368;DHT22;57789;53.868;10.728;2022-09-09T04:03:08;14.50;99.90
70368;DHT22;57789;53.868;10.728;2022-09-09T04:05:34;14.50;99.90
70368;DHT22;57789;53.868;10.728;2022-09-09T04:08:00;14.50;99.90
70368;DHT22;57789;53.868;10.728;2022-09-09T04:10:25;14.60;99.90
70368;DHT22;57789;53.868;10.728;2022-09-09T04:12:52;14.50;99.90
70368;DHT22;57789;53.868;10.728;2022-09-09T04:15:18;14.50;99.90
70368;DHT22;57789;53.868;10.728;2022-09-09T04:17:44;14.60;99.90
70368;DHT22;57789;53.868;10.728;2022-09-09T04:20:09;14.50;99.90
70368;DHT22;57789;53.868;10.728;2022-09-09T04:22:37;14.50;99.90
70368;DHT22;57789;53.868;10.728;2022-09-09T04:25:05;14.50;99.90
70368;DHT22;57789;53.868;10.728;2022-09-09T04:27:31;14.50;99.90
70368;DHT22;57789;53.868;10.728;2022-09-09T04:29:57;14.50;99.90
70368;DHT22;57789;53.868;10.728;2022-09-09T04:32:23;14.50;99.90
70368;DHT22;57789;53.868;10.728;2022-09-09T04:34:52;14.50;99.90
70368;DHT22;57789;53.868;10.728;2022-09-09T04:37:17;14.50;99.90
70368;DHT22;57789;53.868;10.728;2022-09-09T04:39:43;14.50;99.90
70368;DHT22;57789;53.868;10.728;2022-09-09T04:42:08;14.50;99.90
70368;DHT22;57789;53.868;10.728;2022-09-09T04:44:34;14.50;99.90
70368;DHT22;57789;53.868;10.728;2022-09-09T04:47:00;14.50;99.90
70368;DHT22;57789;53.868;10.728;2022-09-09T04:49:25;14.50;99.90
70368;DHT22;57789;53.868;10.728;2022-09-09T04:51:51;14.50;99.90
70368;DHT22;57789;53.868;10.728;2022-09-09T04:54:17;14.40;99.90
70368;DHT22;57789;53.868;10.728;2022-09-09T04:56:43;14.50;99.90
70368;DHT22;57789;53.868;10.728;2022-09-09T04:59:08;14.50;99.90
70368;DHT22;57789;53.868;10.728;2022-09-09T05:01:35;14.50;99.90
70368;DHT22;57789;53.868;10.728;2022-09-09T05:04:02;14.60;99.90
70368;DHT22;57789;53.868;10.728;2022-09-09T05:06:28;14.60;99.90
70368;DHT22;57789;53.868;10.728;2022-09-09T05:08:57;14.50;99.90
70368;DHT22;57789;53.868;10.728;2022-09-09T05:11:24;14.50;99.90
70368;DHT22;57789;53.868;10.728;2022-09-09T05:13:51;14.60;99.90
70368;DHT22;57789;53.868;10.728;2022-09-09T05:16:18;14.60;99.90
70368;DHT22;57789;53.868;10.728;2022-09-09T05:18:44;14.60;99.90
70368;DHT22;57789;53.868;10.728;2022-09-09T05:21:14;14.60;99.90
70368;DHT22;57789;53.868;10.728;2022-09-09T05:23:40;14.60;99.90
70368;DHT22;57789;53.868;10.728;2022-09-09T05:26:08;14.60;99.90
70368;DHT22;57789;53.868;10.728;2022-09-09T05:28:34;14.60;99.90
70368;DHT22;57789;53.868;10.728;2022-09-09T05:31:03;14.60;99.90
70368;DHT22;57789;53.868;10.728;2022-09-09T05:33:31;14.70;99.90
70368;DHT22;57789;53.868;10.728;2022-09-09T05:36:01;14.70;99.90
70368;DHT22;57789;53.868;10.728;2022-09-09T05:38:28;14.70;99.90
70368;DHT22;57789;53.868;10.728;2022-09-09T05:40:55;14.60;99.90
70368;DHT22;57789;53.868;10.728;2022-09-09T05:43:23;14.60;99.90
70368;DHT22;57789;53.868;10.728;2022-09-09T05:46:17;14.60;99.90
70368;DHT22;57789;53.868;10.728;2022-09-09T05:48:44;14.60;99.90
70368;DHT22;57789;53.868;10.728;2022-09-09T05:51:14;14.60;99.90
70368;DHT22;57789;53.868;10.728;2022-09-09T05:53:43;14.60;99.90
70368;DHT22;57789;53.868;10.728;2022-09-09T05:56:15;14.60;99.90
70368;DHT22;57789;53.868;10.728;2022-09-09T05:58:41;14.60;99.90
70368;DHT22;57789;53.868;10.728;2022-09-09T06:03:46;14.70;99.90
70368;DHT22;57789;53.868;10.728;2022-09-09T06:06:15;14.70;99.90
70368;DHT22;57789;53.868;10.728;2022-09-09T06:08:42;14.80;99.90
70368;DHT22;57789;53.868;10.728;2022-09-09T06:11:17;14.80;99.90
70368;DHT22;57789;53.868;10.728;2022-09-09T06:13:43;14.80;99.90
70368;DHT22;57789;53.868;10.728;2022-09-09T06:16:14;14.90;99.90
70368;DHT22;57789;53.868;10.728;2022-09-09T06:18:40;14.90;99.90
70368;DHT22;57789;53.868;10.728;2022-09-09T06:21:14;15.00;99.90
70368;DHT22;57789;53.868;10.728;2022-09-09T06:23:40;15.00;99.90
70368;DHT22;57789;53.868;10.728;2022-09-09T06:28:44;15.00;99.90
70368;DHT22;57789;53.868;10.728;2022-09-09T06:31:12;15.00;99.90
70368;DHT22;57789;53.868;10.728;2022-09-09T06:33:40;15.00;99.90
70368;DHT22;57789;53.868;10.728;2022-09-09T06:36:17;15.00;99.90
70368;DHT22;57789;53.868;10.728;2022-09-09T06:38:44;15.00;99.90
70368;DHT22;57789;53.868;10.728;2022-09-09T06:41:10;15.00;99.90
70368;DHT22;57789;53.868;10.728;2022-09-09T06:43:36;15.00;99.90
70368;DHT22;57789;53.868;10.728;2022-09-09T06:46:08;15.00;99.90
70368;DHT22;57789;53.868;10.728;2022-09-09T06:48:35;15.10;99.90
70368;DHT22;57789;53.868;10.728;2022-09-09T06:53:27;15.20;99.90
70368;DHT22;57789;53.868;10.728;2022-09-09T06:55:53;15.30;99.90
70368;DHT22;57789;53.868;10.728;2022-09-09T06:58:20;15.40;99.90
70368;DHT22;57789;53.868;10.728;2022-09-09T07:00:47;15.40;99.90
70368;DHT22;57789;53.868;10.728;2022-09-09T07:03:13;15.50;99.90
70368;DHT22;57789;53.868;10.728;2022-09-09T07:05:39;15.50;99.90
70368;DHT22;57789;53.868;10.728;2022-09-09T07:08:04;15.60;99.90
70368;DHT22;57789;53.868;10.728;2022-09-09T07:10:31;15.60;99.90
70368;DHT22;57789;53.868;10.728;2022-09-09T07:12:57;15.60;99.90
70368;DHT22;57789;53.868;10.728;2022-09-09T07:15:22;15.70;99.90
70368;DHT22;57789;53.868;10.728;2022-09-09T07:17:48;15.60;99.90
70368;DHT22;57789;53.868;10.728;2022-09-09T07:20:14;15.60;99.90
70368;DHT22;57789;53.868;10.728;2022-09-09T07:22:40;15.50;99.90
70368;DHT22;57789;53.868;10.728;2022-09-09T07:25:07;15.60;99.90
70368;DHT22;57789;53.868;10.728;2022-09-09T07:27:33;15.70;99.90
70368;DHT22;57789;53.868;10.728;2022-09-09T07:29:58;15.80;99.90
70368;DHT22;57789;53.868;10.728;2022-09-09T07:32:24;16.00;99.90
70368;DHT22;57789;53.868;10.728;2022-09-09T07:34:51;16.10;99.90
70368;DHT22;57789;53.868;10.728;2022-09-09T07:37:17;16.20;99.90
70368;DHT22;57789;53.868;10.728;2022-09-09T07:39:43;16.10;99.90
70368;DHT22;57789;53.868;10.728;2022-09-09T07:42:09;16.10;99.90
70368;DHT22;57789;53.868;10.728;2022-09-09T07:44:36;16.20;99.90
70368;DHT22;57789;53.868;10.728;2022-09-09T07:47:05;16.20;99.90
70368;DHT22;57789;53.868;10.728;2022-09-09T07:49:30;16.30;99.90
70368;DHT22;57789;53.868;10.728;2022-09-09T07:51:57;16.50;99.90
70368;DHT22;57789;53.868;10.728;2022-09-09T07:54:23;16.60;99.90
70368;DHT22;57789;53.868;10.728;2022-09-09T07:56:50;16.70;99.90
70368;DHT22;57789;53.868;10.728;2022-09-09T07:59:16;16.80;99.90
70368;DHT22;57789;53.868;10.728;2022-09-09T08:01:45;16.90;99.90
70368;DHT22;57789;53.868;10.728;2022-09-09T08:04:16;17.00;99.90
70368;DHT22;57789;53.868;10.728;2022-09-09T08:06:48;17.10;99.90
70368;DHT22;57789;53.868;10.728;2022-09-09T08:09:14;17.20;99.90
70368;DHT22;57789;53.868;10.728;2022-09-09T08:11:41;17.20;99.90
70368;DHT22;57789;53.868;10.728;2022-09-09T08:14:09;17.30;99.90
70368;DHT22;57789;53.868;10.728;2022-09-09T08:16:38;17.20;99.90
70368;DHT22;57789;53.868;10.728;2022-09-09T08:19:04;17.10;99.90
70368;DHT22;57789;53.868;10.728;2022-09-09T08:21:32;17.10;99.90
70368;DHT22;57789;53.868;10.728;2022-09-09T08:23:59;17.10;99.90
70368;DHT22;57789;53.868;10.728;2022-09-09T08:26:28;17.10;99.90
70368;DHT22;57789;53.868;10.728;2022-09-09T08:28:55;17.10;99.90
70368;DHT22;57789;53.868;10.728;2022-09-09T08:31:39;17.00;99.90
70368;DHT22;57789;53.868;10.728;2022-09-09T08:34:06;17.10;99.90
70368;DHT22;57789;53.868;10.728;2022-09-09T08:36:35;17.30;99.90
70368;DHT22;57789;53.868;10.728;2022-09-09T08:39:02;17.50;99.90
70368;DHT22;57789;53.868;10.728;2022-09-09T08:50:13;18.10;99.90
70368;DHT22;57789;53.868;10.728;2022-09-09T08:52:55;18.10;99.90
70368;DHT22;57789;53.868;10.728;2022-09-09T08:57:54;18.20;99.90
70368;DHT22;57789;53.868;10.728;2022-09-09T09:00:21;18.10;99.90
70368;DHT22;57789;53.868;10.728;2022-09-09T09:05:29;18.30;99.90
70368;DHT22;57789;53.868;10.728;2022-09-09T09:10:33;18.50;99.90
70368;DHT22;57789;53.868;10.728;2022-09-09T09:13:02;18.50;99.90
70368;DHT22;57789;53.868;10.728;2022-09-09T09:15:36;18.50;99.90
70368;DHT22;57789;53.868;10.728;2022-09-09T09:18:04;18.70;99.90
70368;DHT22;57789;53.868;10.728;2022-09-09T09:23:26;18.80;99.90
70368;DHT22;57789;53.868;10.728;2022-09-09T09:25:59;18.90;99.90
70368;DHT22;57789;53.868;10.728;2022-09-09T09:28:29;19.10;99.90
70368;DHT22;57789;53.868;10.728;2022-09-09T09:31:08;19.20;99.90
70368;DHT22;57789;53.868;10.728;2022-09-09T09:36:07;19.10;99.90
70368;DHT22;57789;53.868;10.728;2022-09-09T09:38:35;19.10;99.90
70368;DHT22;57789;53.868;10.728;2022-09-09T09:41:02;19.40;99.90
70368;DHT22;57789;53.868;10.728;2022-09-09T09:43:33;19.60;99.90
70368;DHT22;57789;53.868;10.728;2022-09-09T09:45:59;19.40;99.90
70368;DHT22;57789;53.868;10.728;2022-09-09T09:48:26;19.50;99.90
70368;DHT22;57789;53.868;10.728;2022-09-09T09:51:00;19.60;99.90
70368;DHT22;57789;53.868;10.728;2022-09-09T09:53:32;19.50;99.90
70368;DHT22;57789;53.868;10.728;2022-09-09T09:56:11;19.40;99.90
70368;DHT22;57789;53.868;10.728;2022-09-09T10:03:55;20.00;99.90
70368;DHT22;57789;53.868;10.728;2022-09-09T10:06:33;20.00;99.90
70368;DHT22;57789;53.868;10.728;2022-09-09T10:09:00;20.00;99.90
70368;DHT22;57789;53.868;10.728;2022-09-09T10:11:39;20.10;99.90
70368;DHT22;57789;53.868;10.728;2022-09-09T10:23:09;19.90;99.90
70368;DHT22;57789;53.868;10.728;2022-09-09T10:31:29;20.00;99.90
70368;DHT22;57789;53.868;10.728;2022-09-09T10:36:47;19.80;99.90
70368;DHT22;57789;53.868;10.728;2022-09-09T10:39:35;19.70;99.90
70368;DHT22;57789;53.868;10.728;2022-09-09T10:42:06;19.70;99.90
70368;DHT22;57789;53.868;10.728;2022-09-09T10:55:22;19.90;99.90
70368;DHT22;57789;53.868;10.728;2022-09-09T10:57:52;20.00;99.90
70368;DHT22;57789;53.868;10.728;2022-09-09T11:00:21;20.20;99.90
70368;DHT22;57789;53.868;10.728;2022-09-09T11:03:00;20.10;99.90
70368;DHT22;57789;53.868;10.728;2022-09-09T11:05:29;20.20;99.90
70368;DHT22;57789;53.868;10.728;2022-09-09T11:08:02;20.30;99.90
70368;DHT22;57789;53.868;10.728;2022-09-09T11:10:45;20.30;99.90
70368;DHT22;57789;53.868;10.728;2022-09-09T11:13:38;20.40;99.90
70368;DHT22;57789;53.868;10.728;2022-09-09T11:19:11;20.30;99.90
70368;DHT22;57789;53.868;10.728;2022-09-09T11:21:44;20.50;99.90
70368;DHT22;57789;53.868;10.728;2022-09-09T11:26:57;20.60;99.90
70368;DHT22;57789;53.868;10.728;2022-09-09T11:40:28;20.60;99.90
70368;DHT22;57789;53.868;10.728;2022-09-09T11:43:10;20.70;99.90
70368;DHT22;57789;53.868;10.728;2022-09-09T11:45:38;20.80;99.90
70368;DHT22;57789;53.868;10.728;2022-09-09T11:48:05;20.80;99.90
70368;DHT22;57789;53.868;10.728;2022-09-09T11:50:36;20.90;99.90
70368;DHT22;57789;53.868;10.728;2022-09-09T11:55:39;21.00;99.90
70368;DHT22;57789;53.868;10.728;2022-09-09T12:00:38;21.10;99.90
70368;DHT22;57789;53.868;10.728;2022-09-09T12:03:08;21.00;99.90
70368;DHT22;57789;53.868;10.728;2022-09-09T12:05:51;21.00;99.90
70368;DHT22;57789;53.868;10.728;2022-09-09T12:08:26;21.00;99.90
70368;DHT22;57789;53.868;10.728;2022-09-09T12:10:56;21.10;99.90
70368;DHT22;57789;53.868;10.728;2022-09-09T12:13:24;21.10;99.90
70368;DHT22;57789;53.868;10.728;2022-09-09T12:15:56;21.10;99.90
70368;DHT22;57789;53.868;10.728;2022-09-09T12:29:14;21.20;99.90
70368;DHT22;57789;53.868;10.728;2022-09-09T12:32:06;21.30;99.90
70368;DHT22;57789;53.868;10.728;2022-09-09T12:35:00;21.40;99.90
70368;DHT22;57789;53.868;10.728;2022-09-09T12:37:42;21.50;99.90
70368;DHT22;57789;53.868;10.728;2022-09-09T12:42:47;21.80;99.90
70368;DHT22;57789;53.868;10.728;2022-09-09T12:45:27;21.80;99.90
70368;DHT22;57789;53.868;10.728;2022-09-09T12:47:55;22.00;99.90
70368;DHT22;57789;53.868;10.728;2022-09-09T12:50:24;22.20;99.90
70368;DHT22;57789;53.868;10.728;2022-09-09T12:53:07;22.30;99.90
70368;DHT22;57789;53.868;10.728;2022-09-09T12:55:37;22.30;99.90
70368;DHT22;57789;53.868;10.728;2022-09-09T12:58:05;22.40;99.90
70368;DHT22;57789;53.868;10.728;2022-09-09T13:00:35;22.40;99.90
70368;DHT22;57789;53.868;10.728;2022-09-09T13:03:13;22.30;99.90
70368;DHT22;57789;53.868;10.728;2022-09-09T13:05:40;22.40;99.90
70368;DHT22;57789;53.868;10.728;2022-09-09T13:08:10;22.60;99.90
70368;DHT22;57789;53.868;10.728;2022-09-09T13:11:00;22.80;99.90
70368;DHT22;57789;53.868;10.728;2022-09-09T13:13:38;22.80;99.90
70368;DHT22;57789;53.868;10.728;2022-09-09T13:16:06;23.00;99.90
70368;DHT22;57789;53.868;10.728;2022-09-09T13:18:40;23.00;99.90
70368;DHT22;57789;53.868;10.728;2022-09-09T13:21:07;23.10;99.90
70368;DHT22;57789;53.868;10.728;2022-09-09T13:23:35;23.10;99.90
70368;DHT22;57789;53.868;10.728;2022-09-09T13:26:18;23.10;99.90
70368;DHT22;57789;53.868;10.728;2022-09-09T13:28:46;23.00;99.90
70368;DHT22;57789;53.868;10.728;2022-09-09T13:31:30;22.90;99.90
70368;DHT22;57789;53.868;10.728;2022-09-09T13:33:57;22.90;99.90
70368;DHT22;57789;53.868;10.728;2022-09-09T13:36:33;23.70;99.90
70368;DHT22;57789;53.868;10.728;2022-09-09T13:39:02;24.40;99.90
70368;DHT22;57789;53.868;10.728;2022-09-09T13:41:43;24.50;99.90
70368;DHT22;57789;53.868;10.728;2022-09-09T13:44:27;24.60;99.90
70368;DHT22;57789;53.868;10.728;2022-09-09T13:49:38;24.80;99.90
70368;DHT22;57789;53.868;10.728;2022-09-09T13:52:10;24.30;99.90
70368;DHT22;57789;53.868;10.728;2022-09-09T13:54:37;24.30;99.90
70368;DHT22;57789;53.868;10.728;2022-09-09T13:57:03;24.00;99.90
70368;DHT22;57789;53.868;10.728;2022-09-09T13:59:29;23.70;99.90
70368;DHT22;57789;53.868;10.728;2022-09-09T14:01:55;23.40;99.90
70368;DHT22;57789;53.868;10.728;2022-09-09T14:04:21;23.10;99.90
70368;DHT22;57789;53.868;10.728;2022-09-09T14:06:48;22.80;99.90
70368;DHT22;57789;53.868;10.728;2022-09-09T14:09:16;22.60;99.90
70368;DHT22;57789;53.868;10.728;2022-09-09T14:11:43;22.40;99.90
70368;DHT22;57789;53.868;10.728;2022-09-09T14:14:09;22.20;99.90
70368;DHT22;57789;53.868;10.728;2022-09-09T14:16:35;22.10;99.90
70368;DHT22;57789;53.868;10.728;2022-09-09T14:19:01;21.90;99.90
70368;DHT22;57789;53.868;10.728;2022-09-09T14:21:27;21.80;99.90
70368;DHT22;57789;53.868;10.728;2022-09-09T14:23:53;21.70;99.90
70368;DHT22;57789;53.868;10.728;2022-09-09T14:26:20;21.60;99.90
70368;DHT22;57789;53.868;10.728;2022-09-09T14:28:47;21.50;99.90
70368;DHT22;57789;53.868;10.728;2022-09-09T14:31:13;21.50;99.90
70368;DHT22;57789;53.868;10.728;2022-09-09T14:33:39;21.50;99.90
70368;DHT22;57789;53.868;10.728;2022-09-09T14:36:05;21.20;99.90
70368;DHT22;57789;53.868;10.728;2022-09-09T14:38:34;21.20;99.90
70368;DHT22;57789;53.868;10.728;2022-09-09T14:41:11;21.00;99.90
70368;DHT22;57789;53.868;10.728;2022-09-09T14:43:40;20.90;99.90
70368;DHT22;57789;53.868;10.728;2022-09-09T14:46:16;20.70;99.90
70368;DHT22;57789;53.868;10.728;2022-09-09T14:48:42;20.50;99.90
70368;DHT22;57789;53.868;10.728;2022-09-09T14:51:15;20.40;99.90
70368;DHT22;57789;53.868;10.728;2022-09-09T14:53:41;20.20;99.90
70368;DHT22;57789;53.868;10.728;2022-09-09T14:56:19;19.90;99.90
70368;DHT22;57789;53.868;10.728;2022-09-09T14:58:46;19.80;99.90
70368;DHT22;57789;53.868;10.728;2022-09-09T15:01:15;19.80;99.90
70368;DHT22;57789;53.868;10.728;2022-09-09T15:03:42;19.70;99.90
70368;DHT22;57789;53.868;10.728;2022-09-09T15:06:12;19.60;99.90
70368;DHT22;57789;53.868;10.728;2022-09-09T15:08:41;19.60;99.90
70368;DHT22;57789;53.868;10.728;2022-09-09T15:11:08;19.50;99.90
70368;DHT22;57789;53.868;10.728;2022-09-09T15:13:34;19.50;99.90
70368;DHT22;57789;53.868;10.728;2022-09-09T15:16:07;19.40;99.90
70368;DHT22;57789;53.868;10.728;2022-09-09T15:18:34;19.50;99.90
70368;DHT22;57789;53.868;10.728;2022-09-09T15:21:02;19.40;99.90
70368;DHT22;57789;53.868;10.728;2022-09-09T15:23:28;19.40;99.90
70368;DHT22;57789;53.868;10.728;2022-09-09T15:25:56;19.30;99.90
70368;DHT22;57789;53.868;10.728;2022-09-09T15:28:22;19.30;99.90
70368;DHT22;57789;53.868;10.728;2022-09-09T15:30:52;19.20;99.90
70368;DHT22;57789;53.868;10.728;2022-09-09T15:33:19;19.00;99.90
70368;DHT22;57789;53.868;10.728;2022-09-09T15:35:45;19.00;99.90
70368;DHT22;57789;53.868;10.728;2022-09-09T15:38:11;19.00;99.90
70368;DHT22;57789;53.868;10.728;2022-09-09T15:40:39;19.10;99.90
70368;DHT22;57789;53.868;10.728;2022-09-09T15:43:05;19.30;99.90
70368;DHT22;57789;53.868;10.728;2022-09-09T15:45:32;19.50;99.90
70368;DHT22;57789;53.868;10.728;2022-09-09T15:47:59;19.80;99.90
70368;DHT22;57789;53.868;10.728;2022-09-09T15:50:26;20.10;99.90
70368;DHT22;57789;53.868;10.728;2022-09-09T15:52:52;20.20;99.90
70368;DHT22;57789;53.868;10.728;2022-09-09T15:55:19;20.30;99.90
70368;DHT22;57789;53.868;10.728;2022-09-09T15:57:46;20.10;99.90
70368;DHT22;57789;53.868;10.728;2022-09-09T16:00:12;20.10;99.90
70368;DHT22;57789;53.868;10.728;2022-09-09T16:02:39;20.00;99.90
70368;DHT22;57789;53.868;10.728;2022-09-09T16:05:05;20.00;99.90
70368;DHT22;57789;53.868;10.728;2022-09-09T16:07:31;19.90;99.90
70368;DHT22;57789;53.868;10.728;2022-09-09T16:09:57;19.90;99.90
70368;DHT22;57789;53.868;10.728;2022-09-09T16:12:23;20.00;99.90
70368;DHT22;57789;53.868;10.728;2022-09-09T16:14:48;19.80;99.90
70368;DHT22;57789;53.868;10.728;2022-09-09T16:17:14;19.90;99.90
70368;DHT22;57789;53.868;10.728;2022-09-09T16:19:40;19.90;99.90
70368;DHT22;57789;53.868;10.728;2022-09-09T16:22:06;19.80;99.90
70368;DHT22;57789;53.868;10.728;2022-09-09T16:24:32;19.70;99.90
70368;DHT22;57789;53.868;10.728;2022-09-09T16:26:58;19.80;99.90
70368;DHT22;57789;53.868;10.728;2022-09-09T16:29:24;20.10;99.90
70368;DHT22;57789;53.868;10.728;2022-09-09T16:31:53;20.30;99.90
70368;DHT22;57789;53.868;10.728;2022-09-09T16:34:20;20.50;99.90
70368;DHT22;57789;53.868;10.728;2022-09-09T16:36:47;20.70;99.90
70368;DHT22;57789;53.868;10.728;2022-09-09T16:39:15;20.70;99.90
70368;DHT22;57789;53.868;10.728;2022-09-09T16:41:42;20.70;99.90
70368;DHT22;57789;53.868;10.728;2022-09-09T16:44:10;20.70;99.90
70368;DHT22;57789;53.868;10.728;2022-09-09T16:46:38;20.30;99.90
70368;DHT22;57789;53.868;10.728;2022-09-09T16:49:06;19.70;99.90
70368;DHT22;57789;53.868;10.728;2022-09-09T16:51:35;19.60;99.90
70368;DHT22;57789;53.868;10.728;2022-09-09T16:54:04;19.50;99.90
70368;DHT22;57789;53.868;10.728;2022-09-09T16:56:31;19.50;99.90
70368;DHT22;57789;53.868;10.728;2022-09-09T16:59:02;19.30;99.90
70368;DHT22;57789;53.868;10.728;2022-09-09T17:01:30;19.20;99.90
70368;DHT22;57789;53.868;10.728;2022-09-09T17:03:58;19.10;99.90
70368;DHT22;57789;53.868;10.728;2022-09-09T17:06:24;19.10;99.90
70368;DHT22;57789;53.868;10.728;2022-09-09T17:08:59;19.00;99.90
70368;DHT22;57789;53.868;10.728;2022-09-09T17:11:27;18.90;99.90
70368;DHT22;57789;53.868;10.728;2022-09-09T17:13:54;18.80;99.90
70368;DHT22;57789;53.868;10.728;2022-09-09T17:16:22;18.70;99.90
70368;DHT22;57789;53.868;10.728;2022-09-09T17:18:49;18.60;99.90
70368;DHT22;57789;53.868;10.728;2022-09-09T17:21:18;18.60;99.90
70368;DHT22;57789;53.868;10.728;2022-09-09T17:23:44;18.50;99.90
70368;DHT22;57789;53.868;10.728;2022-09-09T17:26:12;18.40;99.90
70368;DHT22;57789;53.868;10.728;2022-09-09T17:28:39;18.40;99.90
70368;DHT22;57789;53.868;10.728;2022-09-09T17:31:08;18.40;99.90
70368;DHT22;57789;53.868;10.728;2022-09-09T17:33:36;18.30;99.90
70368;DHT22;57789;53.868;10.728;2022-09-09T17:36:08;18.20;99.90
70368;DHT22;57789;53.868;10.728;2022-09-09T17:38:34;18.10;99.90
70368;DHT22;57789;53.868;10.728;2022-09-09T17:41:12;18.00;99.90
70368;DHT22;57789;53.868;10.728;2022-09-09T17:43:38;17.80;99.90
70368;DHT22;57789;53.868;10.728;2022-09-09T17:46:10;17.70;99.90
70368;DHT22;57789;53.868;10.728;2022-09-09T17:48:37;17.70;99.90
70368;DHT22;57789;53.868;10.728;2022-09-09T17:51:08;17.70;99.90
70368;DHT22;57789;53.868;10.728;2022-09-09T17:53:46;17.70;99.90
70368;DHT22;57789;53.868;10.728;2022-09-09T17:56:14;17.70;99.90
70368;DHT22;57789;53.868;10.728;2022-09-09T17:58:40;17.60;99.90
70368;DHT22;57789;53.868;10.728;2022-09-09T18:01:09;17.60;99.90
70368;DHT22;57789;53.868;10.728;2022-09-09T18:03:37;17.50;99.90
70368;DHT22;57789;53.868;10.728;2022-09-09T18:06:06;17.40;99.90
70368;DHT22;57789;53.868;10.728;2022-09-09T18:08:35;17.40;99.90